createdAt,value
2019-03-28T00:00:40.538Z,100309.45
2019-03-28T00:03:10.294Z,100305.03
2019-03-28T00:05:40.055Z,100306.39
2019-03-28T00:08:12.378Z,100307.30
2019-03-28T00:10:41.208Z,100308.84
2019-03-28T00:13:12.163Z,100310.76
2019-03-28T00:15:41.912Z,100315.42
2019-03-28T00:18:11.708Z,100312.20
2019-03-28T00:20:41.421Z,100307.20
2019-03-28T00:23:23.424Z,100308.84
2019-03-28T00:25:53.114Z,100307.19
2019-03-28T00:28:22.920Z,100307.23
2019-03-28T00:30:52.620Z,100309.15
2019-03-28T00:33:22.349Z,100303.05
2019-03-28T00:35:52.057Z,100306.94
2019-03-28T00:38:21.772Z,100302.09
2019-03-28T00:40:51.725Z,100301.11
2019-03-28T00:43:21.584Z,100297.78
2019-03-28T00:45:51.649Z,100294.12
2019-03-28T00:48:21.361Z,100296.19
2019-03-28T00:50:51.085Z,100297.14
2019-03-28T00:53:20.930Z,100294.30
2019-03-28T00:55:50.664Z,100297.84
2019-03-28T00:58:20.374Z,100298.31
2019-03-28T01:00:50.099Z,100297.86
2019-03-28T01:03:19.846Z,100293.97
2019-03-28T01:05:49.663Z,100293.81
2019-03-28T01:08:19.729Z,100291.64
2019-03-28T01:10:49.739Z,100290.77
2019-03-28T01:13:19.445Z,100293.07
2019-03-28T01:15:49.322Z,100291.44
2019-03-28T01:18:19.347Z,100284.30
2019-03-28T01:20:49.974Z,100284.17
2019-03-28T01:23:19.663Z,100287.76
2019-03-28T01:25:49.368Z,100284.39
2019-03-28T01:28:19.186Z,100281.88
2019-03-28T01:30:48.997Z,100283.86
2019-03-28T01:33:18.696Z,100280.62
2019-03-28T01:35:48.411Z,100286.98
2019-03-28T01:38:18.067Z,100285.42
2019-03-28T01:40:47.744Z,100282.69
2019-03-28T01:43:17.420Z,100288.23
2019-03-28T01:45:47.262Z,100290.44
2019-03-28T01:48:17.039Z,100285.28
2019-03-28T01:50:46.759Z,100289.69
2019-03-28T01:53:16.553Z,100287.53
2019-03-28T01:55:46.286Z,100284.03
2019-03-28T01:58:16.163Z,100291.45
2019-03-28T02:00:45.935Z,100279.34
2019-03-28T02:03:15.714Z,100288.78
2019-03-28T02:05:45.397Z,100287.17
2019-03-28T02:08:15.294Z,100288.38
2019-03-28T02:10:45.097Z,100296.45
2019-03-28T02:13:14.932Z,100288.36
2019-03-28T02:15:44.793Z,100291.02
2019-03-28T02:18:14.523Z,100291.99
2019-03-28T02:20:44.242Z,100294.26
2019-03-28T02:23:14.165Z,100294.26
2019-03-28T02:25:43.909Z,100288.14
2019-03-28T02:28:13.638Z,100290.27
2019-03-28T02:30:43.356Z,100285.66
2019-03-28T02:33:13.218Z,100291.63
2019-03-28T02:35:42.908Z,100292.89
2019-03-28T02:38:12.675Z,100297.64
2019-03-28T02:40:42.727Z,100290.73
2019-03-28T02:43:12.595Z,100295.26
2019-03-28T02:45:42.310Z,100288.75
2019-03-28T02:48:12.174Z,100292.67
2019-03-28T02:50:41.879Z,100286.39
2019-03-28T02:53:11.641Z,100284.60
2019-03-28T02:55:41.350Z,100276.86
2019-03-28T02:58:11.207Z,100280.75
2019-03-28T03:00:40.975Z,100276.52
2019-03-28T03:03:10.716Z,100274.93
2019-03-28T03:05:40.442Z,100275.94
2019-03-28T03:08:10.166Z,100283.23
2019-03-28T03:10:40.241Z,100286.73
2019-03-28T03:13:09.956Z,100282.68
2019-03-28T03:15:39.691Z,100282.25
2019-03-28T03:18:09.378Z,100288.69
2019-03-28T03:20:39.142Z,100298.41
2019-03-28T03:23:08.865Z,100298.48
2019-03-28T03:25:38.556Z,100293.70
2019-03-28T03:28:08.265Z,100295.52
2019-03-28T03:30:37.996Z,100293.79
2019-03-28T03:33:09.171Z,100294.63
2019-03-28T03:35:39.181Z,100290.80
2019-03-28T03:38:08.946Z,100290.06
2019-03-28T03:40:39.214Z,100282.80
2019-03-28T03:43:08.950Z,100279.73
2019-03-28T03:45:38.699Z,100283.59
2019-03-28T03:48:08.378Z,100280.63
2019-03-28T03:50:38.350Z,100278.05
2019-03-28T03:53:08.151Z,100277.63
2019-03-28T03:55:37.914Z,100274.21
2019-03-28T03:58:15.335Z,100277.89
2019-03-28T04:00:39.370Z,100280.20
2019-03-28T04:03:09.078Z,100281.84
2019-03-28T04:05:38.900Z,100289.60
2019-03-28T04:08:08.605Z,100290.34
2019-03-28T04:10:38.347Z,100298.44
2019-03-28T04:13:08.185Z,100296.12
2019-03-28T04:15:38.237Z,100295.36
2019-03-28T04:18:08.080Z,100299.11
2019-03-28T04:20:37.791Z,100303.86
2019-03-28T04:23:07.518Z,100304.42
2019-03-28T04:25:37.687Z,100310.86
2019-03-28T04:28:07.425Z,100310.67
2019-03-28T04:30:37.182Z,100314.59
2019-03-28T04:33:06.987Z,100320.18
2019-03-28T04:35:36.711Z,100313.36
2019-03-28T04:38:06.474Z,100314.73
2019-03-28T04:40:36.284Z,100318.10
2019-03-28T04:43:06.257Z,100316.48
2019-03-28T04:45:35.976Z,100323.02
2019-03-28T04:48:05.701Z,100315.17
2019-03-28T04:50:36.184Z,100321.52
2019-03-28T04:53:05.945Z,100324.73
2019-03-28T04:55:35.678Z,100320.34
2019-03-28T04:58:05.409Z,100317.87
2019-03-28T05:00:35.618Z,100323.39
2019-03-28T05:03:05.497Z,100325.63
2019-03-28T05:05:35.248Z,100328.78
2019-03-28T05:08:05.313Z,100334.48
2019-03-28T05:10:35.090Z,100337.45
2019-03-28T05:13:04.765Z,100340.36
2019-03-28T05:15:34.538Z,100336.02
2019-03-28T05:18:04.273Z,100338.66
2019-03-28T05:20:33.997Z,100338.71
2019-03-28T05:23:03.819Z,100340.41
2019-03-28T05:25:33.577Z,100340.41
2019-03-28T05:28:03.559Z,100345.94
2019-03-28T05:30:33.418Z,100344.52
2019-03-28T05:33:03.295Z,100347.88
2019-03-28T05:35:33.133Z,100346.67
2019-03-28T05:38:02.870Z,100341.06
2019-03-28T05:40:32.582Z,100347.53
2019-03-28T05:43:02.397Z,100342.69
2019-03-28T05:45:32.408Z,100346.86
2019-03-28T05:48:02.151Z,100346.75
2019-03-28T05:50:32.239Z,100348.84
2019-03-28T05:53:01.960Z,100347.84
2019-03-28T05:55:31.815Z,100355.05
2019-03-28T05:58:03.275Z,100356.95
2019-03-28T06:00:33.003Z,100364.86
2019-03-28T06:03:02.845Z,100364.14
2019-03-28T06:05:32.613Z,100363.23
2019-03-28T06:08:02.578Z,100358.49
2019-03-28T06:10:32.556Z,100355.89
2019-03-28T06:13:02.237Z,100354.56
2019-03-28T06:15:32.061Z,100350.91
2019-03-28T06:18:01.927Z,100348.03
2019-03-28T06:20:31.630Z,100356.98
2019-03-28T06:23:01.328Z,100354.62
2019-03-28T06:25:32.622Z,100350.92
2019-03-28T06:28:02.294Z,100361.27
2019-03-28T06:30:32.012Z,100357.99
2019-03-28T06:33:01.687Z,100361.52
2019-03-28T06:35:31.406Z,100369.48
2019-03-28T06:38:01.124Z,100369.63
2019-03-28T06:40:31.339Z,100372.70
2019-03-28T06:43:01.159Z,100369.80
2019-03-28T06:45:31.081Z,100366.36
2019-03-28T06:48:01.067Z,100359.27
2019-03-28T06:50:30.799Z,100360.42
2019-03-28T06:53:00.655Z,100361.83
2019-03-28T06:55:30.535Z,100351.73
2019-03-28T06:58:00.339Z,100357.78
2019-03-28T07:00:30.058Z,100354.02
2019-03-28T07:03:00.161Z,100355.55
2019-03-28T07:05:29.898Z,100357.52
2019-03-28T07:07:59.619Z,100358.45
2019-03-28T07:10:29.724Z,100357.82
2019-03-28T07:12:59.430Z,100363.94
2019-03-28T07:15:29.277Z,100355.11
2019-03-28T07:17:58.999Z,100353.44
2019-03-28T07:20:28.759Z,100348.26
2019-03-28T07:22:58.486Z,100351.26
2019-03-28T07:25:28.205Z,100344.47
2019-03-28T07:27:58.137Z,100342.32
2019-03-28T07:30:27.843Z,100334.88
2019-03-28T07:32:57.580Z,100331.19
2019-03-28T07:35:27.283Z,100338.79
2019-03-28T07:37:57.218Z,100335.42
2019-03-28T07:40:26.940Z,100332.97
2019-03-28T07:42:56.684Z,100329.06
2019-03-28T07:45:26.375Z,100334.96
2019-03-28T07:47:56.490Z,100332.94
2019-03-28T07:50:26.511Z,100321.93
2019-03-28T07:52:56.330Z,100320.91
2019-03-28T07:55:26.309Z,100321.55
2019-03-28T07:57:56.170Z,100320.23
2019-03-28T08:00:25.872Z,100316.04
2019-03-28T08:02:58.358Z,100310.41
2019-03-28T08:05:27.037Z,100319.64
2019-03-28T08:07:56.817Z,100316.39
2019-03-28T08:10:26.551Z,100319.31
2019-03-28T08:12:56.566Z,100317.33
2019-03-28T08:15:26.567Z,100317.20
2019-03-28T08:17:56.286Z,100316.97
2019-03-28T08:20:26.020Z,100313.30
2019-03-28T08:22:55.717Z,100320.38
2019-03-28T08:25:25.463Z,100317.28
2019-03-28T08:27:57.642Z,100321.81
2019-03-28T08:30:37.560Z,100323.91
2019-03-28T08:33:09.059Z,100329.34
2019-03-28T08:35:38.996Z,100329.09
2019-03-28T08:38:10.140Z,100330.81
2019-03-28T08:40:42.056Z,100326.28
2019-03-28T08:43:12.538Z,100324.08
2019-03-28T08:45:42.272Z,100321.19
2019-03-28T08:48:12.155Z,100316.45
2019-03-28T08:50:41.965Z,100318.72
2019-03-28T08:53:12.682Z,100320.69
2019-03-28T08:55:42.418Z,100319.52
2019-03-28T08:58:12.116Z,100316.25
2019-03-28T09:00:51.666Z,100317.27
2019-03-28T09:03:13.524Z,100314.47
2019-03-28T09:05:43.227Z,100314.20
2019-03-28T09:08:12.972Z,100310.16
2019-03-28T09:10:42.688Z,100315.55
2019-03-28T09:13:12.406Z,100315.63
2019-03-28T09:15:43.986Z,100312.45
2019-03-28T09:18:14.033Z,100312.88
2019-03-28T09:20:43.791Z,100310.70
2019-03-28T09:23:13.506Z,100316.10
2019-03-28T09:25:43.385Z,100307.39
2019-03-28T09:28:13.130Z,100320.76
2019-03-28T09:30:48.662Z,100311.39
2019-03-28T09:33:14.599Z,100308.56
2019-03-28T09:35:44.683Z,100301.25
2019-03-28T09:38:14.637Z,100299.35
2019-03-28T09:40:44.465Z,100305.97
2019-03-28T09:43:14.518Z,100307.27
2019-03-28T09:45:44.321Z,100305.40
2019-03-28T09:48:14.118Z,100298.48
2019-03-28T09:50:43.884Z,100299.52
2019-03-28T09:53:14.062Z,100298.43
2019-03-28T09:55:44.121Z,100297.58
2019-03-28T09:58:13.859Z,100295.48
2019-03-28T10:00:43.615Z,100294.11
2019-03-28T10:03:13.789Z,100290.25
2019-03-28T10:05:43.492Z,100291.61
2019-03-28T10:08:13.209Z,100286.50
2019-03-28T10:10:42.941Z,100281.56
2019-03-28T10:13:12.671Z,100284.66
2019-03-28T10:15:42.392Z,100276.35
2019-03-28T10:18:12.432Z,100277.32
2019-03-28T10:20:42.144Z,100278.45
2019-03-28T10:23:12.524Z,100274.04
2019-03-28T10:25:42.241Z,100275.42
2019-03-28T10:28:12.133Z,100268.08
2019-03-28T10:30:43.872Z,100269.21
2019-03-28T10:33:13.910Z,100267.89
2019-03-28T10:35:43.726Z,100271.75
2019-03-28T10:38:13.492Z,100262.95
2019-03-28T10:40:43.405Z,100264.13
2019-03-28T10:43:13.118Z,100264.28
2019-03-28T10:45:42.821Z,100264.19
2019-03-28T10:48:12.751Z,100269.38
2019-03-28T10:50:45.735Z,100265.58
2019-03-28T10:53:14.239Z,100261.95
2019-03-28T10:55:43.936Z,100261.73
2019-03-28T10:58:18.689Z,100259.34
2019-03-28T11:00:45.644Z,100256.50
2019-03-28T11:03:15.455Z,100254.25
2019-03-28T11:05:45.217Z,100247.59
2019-03-28T11:08:14.975Z,100238.84
2019-03-28T11:10:44.676Z,100236.05
2019-03-28T11:13:14.391Z,100237.46
2019-03-28T11:15:44.105Z,100230.87
2019-03-28T11:18:14.146Z,100235.40
2019-03-28T11:20:43.864Z,100229.56
2019-03-28T11:23:13.729Z,100225.91
2019-03-28T11:25:43.440Z,100229.39
2019-03-28T11:28:13.245Z,100224.27
2019-03-28T11:30:43.252Z,100222.20
2019-03-28T11:33:13.003Z,100218.89
2019-03-28T11:35:42.739Z,100223.06
2019-03-28T11:38:12.470Z,100221.17
2019-03-28T11:40:42.983Z,100211.34
2019-03-28T11:43:12.909Z,100207.91
2019-03-28T11:45:42.651Z,100205.28
2019-03-28T11:48:12.358Z,100198.41
2019-03-28T11:50:42.098Z,100195.61
2019-03-28T11:53:12.131Z,100197.34
2019-03-28T11:55:41.861Z,100204.52
2019-03-28T11:58:11.870Z,100209.22
2019-03-28T12:00:42.159Z,100206.31
2019-03-28T12:03:11.994Z,100201.14
2019-03-28T12:05:41.757Z,100202.69
2019-03-28T12:08:11.530Z,100211.09
2019-03-28T12:10:41.276Z,100205.69
2019-03-28T12:13:11.335Z,100207.14
2019-03-28T12:15:41.071Z,100206.03
2019-03-28T12:18:10.795Z,100207.86
2019-03-28T12:20:40.513Z,100202.79
2019-03-28T12:23:10.431Z,100195.84
2019-03-28T12:25:40.196Z,100193.11
2019-03-28T12:28:09.902Z,100191.84
2019-03-28T12:30:39.848Z,100193.64
2019-03-28T12:33:09.561Z,100185.58
2019-03-28T12:35:39.280Z,100189.51
2019-03-28T12:38:08.970Z,100186.48
2019-03-28T12:40:38.695Z,100179.78
2019-03-28T12:43:08.410Z,100185.82
2019-03-28T12:45:38.193Z,100185.11
2019-03-28T12:48:08.407Z,100184.72
2019-03-28T12:50:38.199Z,100187.64
2019-03-28T12:53:07.918Z,100180.45
2019-03-28T12:55:37.699Z,100192.58
2019-03-28T12:58:07.741Z,100179.86
2019-03-28T13:00:38.241Z,100177.61
2019-03-28T13:03:07.963Z,100182.59
2019-03-28T13:05:37.710Z,100178.93
2019-03-28T13:08:07.622Z,100182.03
2019-03-28T13:10:37.812Z,100170.45
2019-03-28T13:13:07.794Z,100177.17
2019-03-28T13:15:37.597Z,100173.77
2019-03-28T13:18:07.555Z,100178.30
2019-03-28T13:20:37.761Z,100170.01
2019-03-28T13:23:07.577Z,100169.27
2019-03-28T13:25:37.287Z,100160.84
2019-03-28T13:28:07.030Z,100164.95
2019-03-28T13:30:36.855Z,100159.39
2019-03-28T13:33:06.603Z,100160.55
2019-03-28T13:35:36.389Z,100156.70
2019-03-28T13:38:06.159Z,100163.10
2019-03-28T13:40:35.890Z,100157.81
2019-03-28T13:43:06.020Z,100149.47
2019-03-28T13:45:35.842Z,100148.77
2019-03-28T13:48:06.003Z,100152.63
2019-03-28T13:50:35.720Z,100152.83
2019-03-28T13:53:05.463Z,100145.92
2019-03-28T13:55:35.174Z,100145.28
2019-03-28T13:58:05.070Z,100155.31
2019-03-28T14:00:35.943Z,100147.46
2019-03-28T14:03:05.995Z,100148.25
2019-03-28T14:05:35.779Z,100146.52
2019-03-28T14:08:05.685Z,100148.78
2019-03-28T14:10:35.393Z,100135.52
2019-03-28T14:13:05.091Z,100136.88
2019-03-28T14:15:34.827Z,100138.47
2019-03-28T14:18:04.606Z,100134.52
2019-03-28T14:20:34.331Z,100129.80
2019-03-28T14:23:04.284Z,100131.96
2019-03-28T14:25:34.020Z,100135.05
2019-03-28T14:28:03.725Z,100131.20
2019-03-28T14:30:33.494Z,100130.20
2019-03-28T14:33:11.203Z,100137.72
2019-03-28T14:35:34.886Z,100131.17
2019-03-28T14:38:04.583Z,100140.63
2019-03-28T14:40:34.306Z,100147.52
2019-03-28T14:43:04.454Z,100141.14
2019-03-28T14:45:34.232Z,100143.20
2019-03-28T14:48:06.801Z,100143.52
2019-03-28T14:50:37.450Z,100147.55
2019-03-28T14:53:07.422Z,100141.02
2019-03-28T14:55:37.284Z,100143.96
2019-03-28T14:58:07.514Z,100139.97
2019-03-28T15:00:54.839Z,100137.32
2019-03-28T15:03:26.602Z,100143.88
2019-03-28T15:05:56.042Z,100145.31
2019-03-28T15:08:25.806Z,100138.27
2019-03-28T15:10:55.711Z,100142.02
2019-03-28T15:13:25.515Z,100141.61
2019-03-28T15:15:55.304Z,100137.30
2019-03-28T15:18:25.005Z,100136.61
2019-03-28T15:20:54.761Z,100134.70
2019-03-28T15:23:24.506Z,100133.41
2019-03-28T15:25:54.249Z,100133.97
2019-03-28T15:28:23.942Z,100131.97
2019-03-28T15:30:53.756Z,100131.05
2019-03-28T15:33:23.545Z,100130.44
2019-03-28T15:35:53.294Z,100135.61
2019-03-28T15:38:23.005Z,100131.23
2019-03-28T15:40:52.766Z,100132.13
2019-03-28T15:43:22.487Z,100131.91
2019-03-28T15:45:52.491Z,100125.15
2019-03-28T15:48:22.324Z,100125.41
2019-03-28T15:50:52.086Z,100125.71
2019-03-28T15:53:22.004Z,100128.00
2019-03-28T15:55:51.761Z,100121.48
2019-03-28T15:58:23.650Z,100124.45
2019-03-28T16:00:53.387Z,100123.86
2019-03-28T16:03:23.207Z,100122.45
2019-03-28T16:05:58.417Z,100119.59
2019-03-28T16:08:24.361Z,100122.50
2019-03-28T16:10:54.068Z,100124.77
2019-03-28T16:13:23.794Z,100124.77
2019-03-28T16:15:53.540Z,100121.30
2019-03-28T16:18:23.785Z,100125.94
2019-03-28T16:20:53.652Z,100122.29
2019-03-28T16:23:25.563Z,100124.42
2019-03-28T16:25:55.331Z,100120.55
2019-03-28T16:28:27.996Z,100121.98
2019-03-28T16:30:56.568Z,100122.91
2019-03-28T16:33:26.320Z,100123.14
2019-03-28T16:35:56.550Z,100119.25
2019-03-28T16:38:28.443Z,100121.97
2019-03-28T16:40:58.398Z,100122.67
2019-03-28T16:43:28.233Z,100126.75
2019-03-28T16:45:59.742Z,100122.20
2019-03-28T16:48:29.472Z,100133.46
2019-03-28T16:51:01.673Z,100128.22
2019-03-28T16:53:31.486Z,100130.56
2019-03-28T16:56:01.750Z,100130.17
2019-03-28T16:58:33.418Z,100129.72
2019-03-28T17:01:05.921Z,100126.17
2019-03-28T17:03:36.874Z,100130.08
2019-03-28T17:06:07.700Z,100130.60
2019-03-28T17:08:38.005Z,100131.34
2019-03-28T17:11:11.940Z,100131.80
2019-03-28T17:13:42.647Z,100130.64
2019-03-28T17:16:12.518Z,100124.09
2019-03-28T17:18:42.254Z,100134.58
2019-03-28T17:21:12.211Z,100136.08
2019-03-28T17:23:41.919Z,100135.59
2019-03-28T17:26:11.997Z,100136.31
2019-03-28T17:28:41.712Z,100132.28
2019-03-28T17:31:11.834Z,100126.66
2019-03-28T17:33:41.596Z,100129.97
2019-03-28T17:36:17.260Z,100136.19
2019-03-28T17:38:47.519Z,100135.80
2019-03-28T17:41:19.149Z,100137.34
2019-03-28T17:43:48.859Z,100138.02
2019-03-28T17:46:18.720Z,100141.44
2019-03-28T17:48:48.683Z,100140.49
2019-03-28T17:51:21.453Z,100144.94
2019-03-28T17:53:56.059Z,100147.66
2019-03-28T17:56:25.622Z,100142.48
2019-03-28T17:58:55.391Z,100152.65
2019-03-28T18:01:27.693Z,100148.41
2019-03-28T18:03:58.120Z,100151.80
2019-03-28T18:06:27.918Z,100147.00
2019-03-28T18:08:58.732Z,100156.11
2019-03-28T18:11:30.447Z,100155.75
2019-03-28T18:14:00.283Z,100150.68
2019-03-28T18:16:30.040Z,100155.95
2019-03-28T18:18:59.913Z,100162.03
2019-03-28T18:21:29.673Z,100161.58
2019-03-28T18:23:59.371Z,100166.44
2019-03-28T18:26:29.109Z,100166.14
2019-03-28T18:28:58.799Z,100172.27
2019-03-28T18:31:28.804Z,100179.09
2019-03-28T18:33:58.553Z,100184.23
2019-03-28T18:36:28.267Z,100190.78
2019-03-28T18:38:58.028Z,100186.27
2019-03-28T18:41:27.747Z,100193.30
2019-03-28T18:43:57.526Z,100187.66
2019-03-28T18:46:27.266Z,100192.03
2019-03-28T18:48:57.029Z,100197.20
2019-03-28T18:51:26.734Z,100194.91
2019-03-28T18:53:56.647Z,100197.78
2019-03-28T18:56:26.706Z,100199.80
2019-03-28T18:58:57.586Z,100192.64
2019-03-28T19:01:27.581Z,100189.47
2019-03-28T19:03:57.286Z,100195.97
2019-03-28T19:06:27.314Z,100195.61
2019-03-28T19:08:57.056Z,100197.26
2019-03-28T19:11:27.006Z,100195.17
2019-03-28T19:13:56.917Z,100199.16
2019-03-28T19:16:26.674Z,100202.85
2019-03-28T19:18:59.781Z,100203.09
2019-03-28T19:21:28.096Z,100214.55
2019-03-28T19:23:57.766Z,100213.66
2019-03-28T19:26:27.482Z,100210.91
2019-03-28T19:28:57.226Z,100214.39
2019-03-28T19:31:26.919Z,100215.56
2019-03-28T19:33:56.714Z,100212.36
2019-03-28T19:36:27.284Z,100206.92
2019-03-28T19:38:57.093Z,100215.17
2019-03-28T19:41:26.961Z,100211.29
2019-03-28T19:43:56.729Z,100212.63
2019-03-28T19:46:26.475Z,100208.10
2019-03-28T19:48:56.202Z,100208.42
2019-03-28T19:51:28.325Z,100210.60
2019-03-28T19:53:57.860Z,100207.58
2019-03-28T19:56:27.998Z,100211.70
2019-03-28T19:58:59.143Z,100203.14
2019-03-28T20:01:29.077Z,100208.56
2019-03-28T20:03:58.898Z,100211.03
2019-03-28T20:06:28.636Z,100206.10
2019-03-28T20:08:58.481Z,100210.77
2019-03-28T20:11:28.561Z,100204.69
2019-03-28T20:13:58.567Z,100214.36
2019-03-28T20:16:28.320Z,100215.12
2019-03-28T20:18:58.031Z,100209.95
2019-03-28T20:21:27.798Z,100206.72
2019-03-28T20:23:57.529Z,100212.92
2019-03-28T20:26:27.294Z,100206.70
2019-03-28T20:28:57.053Z,100206.64
2019-03-28T20:31:27.068Z,100207.38
2019-03-28T20:36:38.601Z,100211.05
2019-03-28T20:39:06.257Z,100207.34
2019-03-28T20:41:36.195Z,100209.52
2019-03-28T20:44:06.149Z,100209.30
2019-03-28T20:46:35.953Z,100210.70
2019-03-28T20:49:06.048Z,100211.92
2019-03-28T20:51:35.769Z,100211.34
2019-03-28T20:54:07.723Z,100211.45
2019-03-28T20:56:37.300Z,100217.71
2019-03-28T20:59:07.180Z,100214.37
2019-03-28T21:01:36.889Z,100220.89
2019-03-28T21:04:07.189Z,100215.05
2019-03-28T21:06:37.758Z,100210.02
2019-03-28T21:09:08.604Z,100203.46
2019-03-28T21:11:38.355Z,100209.94
2019-03-28T21:14:08.169Z,100205.23
2019-03-28T21:16:38.435Z,100201.37
2019-03-28T21:19:08.524Z,100202.28
2019-03-28T21:21:38.292Z,100195.49
2019-03-28T21:24:08.343Z,100198.73
2019-03-28T21:26:38.422Z,100200.38
2019-03-28T21:29:08.522Z,100193.11
2019-03-28T21:31:49.294Z,100196.23
2019-03-28T21:34:09.857Z,100190.62
2019-03-28T21:36:40.043Z,100190.30
2019-03-28T21:39:09.809Z,100186.60
2019-03-28T21:41:39.501Z,100182.84
2019-03-28T21:44:10.776Z,100183.79
2019-03-28T21:46:40.542Z,100188.97
2019-03-28T21:49:11.818Z,100184.56
2019-03-28T21:51:45.882Z,100185.59
2019-03-28T21:54:15.103Z,100186.06
2019-03-28T21:56:44.825Z,100184.81
2019-03-28T22:02:40.066Z,100179.73
2019-03-28T22:05:11.831Z,100177.41
2019-03-28T22:07:41.582Z,100178.77
2019-03-28T22:10:11.453Z,100178.83
2019-03-28T22:12:41.267Z,100175.38
2019-03-28T22:15:11.501Z,100182.14
2019-03-28T22:17:41.974Z,100182.26
2019-03-28T22:20:12.256Z,100185.42
2019-03-28T22:22:43.662Z,100175.66
2019-03-28T22:25:13.664Z,100171.77
2019-03-28T22:27:43.527Z,100176.97
2019-03-28T22:30:14.582Z,100172.00
2019-03-28T22:32:44.278Z,100171.31
2019-03-28T22:35:14.469Z,100165.02
2019-03-28T22:37:44.828Z,100171.44
2019-03-28T22:40:14.938Z,100176.43
2019-03-28T22:42:45.939Z,100169.41
2019-03-28T22:45:15.750Z,100165.79
2019-03-28T22:47:46.340Z,100161.89
2019-03-28T22:50:16.292Z,100165.98
2019-03-28T22:52:46.274Z,100164.53
2019-03-28T22:55:16.464Z,100161.41
2019-03-28T22:57:46.751Z,100165.20
2019-03-28T23:00:17.240Z,100156.38
2019-03-28T23:02:47.154Z,100164.57
2019-03-28T23:05:17.514Z,100159.23
2019-03-28T23:07:47.510Z,100161.48
2019-03-28T23:10:20.987Z,100162.08
2019-03-28T23:12:50.426Z,100160.99
2019-03-28T23:15:21.935Z,100165.65
2019-03-28T23:17:51.948Z,100161.48
2019-03-28T23:20:21.634Z,100156.33
2019-03-28T23:22:51.388Z,100160.89
2019-03-28T23:25:21.457Z,100166.45
2019-03-28T23:27:51.222Z,100163.03
2019-03-28T23:30:21.233Z,100158.72
2019-03-28T23:32:50.910Z,100161.98
2019-03-28T23:35:20.604Z,100161.80
2019-03-28T23:37:50.314Z,100153.70
2019-03-28T23:40:20.011Z,100156.19
2019-03-28T23:42:49.759Z,100158.67
2019-03-28T23:45:19.810Z,100158.86
2019-03-28T23:47:49.678Z,100153.65
2019-03-28T23:50:19.431Z,100154.65
2019-03-28T23:52:49.250Z,100147.89
2019-03-28T23:55:19.330Z,100150.82
2019-03-28T23:57:49.022Z,100152.55
